createdAt,value
2019-05-19T00:01:32.167Z,2.40
2019-05-19T00:04:02.558Z,3.00
2019-05-19T00:06:32.841Z,3.47
2019-05-19T00:09:03.447Z,2.35
2019-05-19T00:11:34.208Z,3.00
2019-05-19T00:14:06.582Z,2.67
2019-05-19T00:16:36.877Z,3.00
2019-05-19T00:19:07.179Z,3.40
2019-05-19T00:21:38.002Z,2.85
2019-05-19T00:24:08.201Z,2.83
2019-05-19T00:26:40.987Z,2.80
2019-05-19T00:29:11.372Z,2.80
2019-05-19T00:31:41.822Z,2.77
2019-05-19T00:34:12.091Z,2.92
2019-05-19T00:36:42.358Z,3.15
2019-05-19T00:39:12.925Z,3.40
2019-05-19T00:41:43.457Z,3.10
2019-05-19T00:44:13.805Z,2.50
2019-05-19T00:46:44.262Z,2.45
2019-05-19T00:49:14.625Z,2.08
2019-05-19T00:51:45.568Z,2.12
2019-05-19T00:54:15.881Z,2.25
2019-05-19T00:56:47.590Z,2.27
2019-05-19T00:59:18.896Z,2.15
2019-05-19T01:01:49.174Z,2.60
2019-05-19T01:04:19.457Z,2.20
2019-05-19T01:06:50.454Z,2.30
2019-05-19T01:09:20.725Z,2.12
2019-05-19T01:11:51.153Z,2.00
2019-05-19T01:14:21.517Z,2.15
2019-05-19T01:16:52.683Z,3.17
2019-05-19T01:20:12.887Z,2.05
2019-05-19T01:22:48.751Z,1.90
2019-05-19T01:25:29.814Z,2.20
2019-05-19T01:29:16.549Z,1.85
2019-05-19T01:31:46.106Z,2.00
2019-05-19T01:34:18.342Z,2.40
2019-05-19T01:36:55.628Z,1.85
2019-05-19T01:39:25.778Z,1.75
2019-05-19T01:41:56.005Z,1.50
2019-05-19T01:44:26.195Z,1.40
2019-05-19T01:46:56.371Z,1.42
2019-05-19T01:49:26.824Z,1.37
2019-05-19T01:51:57.215Z,1.50
2019-05-19T01:54:27.517Z,1.70
2019-05-19T01:56:58.231Z,1.30
2019-05-19T01:59:28.385Z,1.32
2019-05-19T02:01:58.602Z,1.30
2019-05-19T02:04:28.842Z,1.30
2019-05-19T02:06:59.034Z,1.50
2019-05-19T02:09:29.568Z,1.45
2019-05-19T02:11:59.726Z,1.62
2019-05-19T02:14:30.146Z,1.40
2019-05-19T02:17:01.049Z,1.50
2019-05-19T02:19:32.289Z,1.45
2019-05-19T02:22:03.611Z,1.67
2019-05-19T02:24:33.910Z,1.30
2019-05-19T02:27:05.140Z,1.30
2019-05-19T02:29:35.503Z,1.70
2019-05-19T02:32:06.009Z,1.32
2019-05-19T02:34:36.498Z,1.40
2019-05-19T02:37:06.757Z,1.30
2019-05-19T02:39:36.997Z,1.50
2019-05-19T02:42:09.919Z,1.60
2019-05-19T02:44:41.107Z,1.50
2019-05-19T02:47:13.321Z,1.40
2019-05-19T02:49:45.952Z,1.40
2019-05-19T02:52:18.011Z,1.22
2019-05-19T02:54:48.975Z,1.10
2019-05-19T02:57:20.166Z,1.22
2019-05-19T02:59:51.796Z,1.30
2019-05-19T03:02:22.735Z,1.20
2019-05-19T03:04:53.032Z,1.30
2019-05-19T03:07:23.697Z,1.20
2019-05-19T03:09:53.850Z,1.35
2019-05-19T03:12:24.022Z,1.20
2019-05-19T03:14:55.467Z,1.10
2019-05-19T03:17:26.027Z,1.62
2019-05-19T03:19:56.384Z,1.30
2019-05-19T03:22:26.998Z,1.40
2019-05-19T03:24:57.755Z,1.45
2019-05-19T03:27:28.261Z,1.70
2019-05-19T03:30:16.900Z,1.10
2019-05-19T03:32:51.879Z,1.30
2019-05-19T03:35:22.190Z,1.10
2019-05-19T03:37:52.414Z,1.00
2019-05-19T03:40:23.001Z,1.10
2019-05-19T03:42:53.244Z,1.20
2019-05-19T03:45:23.490Z,1.50
2019-05-19T03:47:53.721Z,1.22
2019-05-19T03:50:23.994Z,1.00
2019-05-19T03:52:55.003Z,1.12
2019-05-19T03:55:25.411Z,1.10
2019-05-19T03:57:55.651Z,1.20
2019-05-19T04:00:26.163Z,1.17
2019-05-19T04:02:56.821Z,1.10
2019-05-19T04:05:27.167Z,1.00
2019-05-19T04:07:57.470Z,1.15
2019-05-19T04:10:29.093Z,1.20
2019-05-19T04:12:59.296Z,1.25
2019-05-19T04:15:29.851Z,1.00
2019-05-19T04:18:00.153Z,1.25
2019-05-19T04:20:30.905Z,1.30
2019-05-19T04:23:01.191Z,1.15
2019-05-19T04:25:31.744Z,1.22
2019-05-19T04:28:03.002Z,1.05
2019-05-19T04:30:33.725Z,1.35
2019-05-19T04:33:04.540Z,1.27
2019-05-19T04:35:34.714Z,1.22
2019-05-19T04:38:04.957Z,1.10
2019-05-19T04:40:35.281Z,1.00
2019-05-19T04:43:05.635Z,1.20
2019-05-19T04:45:36.002Z,1.30
2019-05-19T04:48:09.581Z,1.15
2019-05-19T04:50:39.233Z,1.20
2019-05-19T04:53:09.637Z,1.37
2019-05-19T04:55:40.399Z,1.50
2019-05-19T04:58:10.649Z,1.07
2019-05-19T05:00:42.066Z,1.35
2019-05-19T05:03:12.468Z,1.35
2019-05-19T05:05:42.868Z,1.35
2019-05-19T05:08:27.840Z,1.10
2019-05-19T05:10:44.999Z,1.37
2019-05-19T05:13:15.475Z,1.20
2019-05-19T05:15:46.309Z,1.20
2019-05-19T05:18:16.995Z,1.10
2019-05-19T05:20:47.199Z,1.55
2019-05-19T05:23:17.339Z,1.30
2019-05-19T05:25:47.811Z,1.40
2019-05-19T05:28:17.942Z,1.50
2019-05-19T05:30:48.248Z,1.60
2019-05-19T05:33:18.915Z,1.75
2019-05-19T05:35:49.081Z,1.42
2019-05-19T05:38:19.736Z,1.60
2019-05-19T05:40:51.050Z,1.40
2019-05-19T05:43:22.098Z,1.47
2019-05-19T05:45:52.920Z,1.50
2019-05-19T05:48:23.530Z,1.60
2019-05-19T05:50:53.984Z,1.65
2019-05-19T05:53:24.644Z,1.50
2019-05-19T05:55:54.931Z,1.40
2019-05-19T05:58:25.108Z,1.60
2019-05-19T06:00:55.823Z,1.45
2019-05-19T06:03:26.814Z,1.37
2019-05-19T06:05:57.371Z,1.60
2019-05-19T06:08:27.733Z,1.37
2019-05-19T06:10:57.882Z,1.40
2019-05-19T06:13:29.092Z,1.37
2019-05-19T06:15:59.365Z,1.40
2019-05-19T06:18:29.530Z,1.30
2019-05-19T06:21:00.751Z,1.35
2019-05-19T06:23:30.877Z,1.40
2019-05-19T06:26:01.568Z,1.47
2019-05-19T06:28:31.892Z,1.70
2019-05-19T06:31:02.757Z,1.42
2019-05-19T06:33:32.999Z,1.40
2019-05-19T06:36:03.556Z,1.52
2019-05-19T06:38:34.446Z,1.75
2019-05-19T06:41:04.859Z,1.80
2019-05-19T06:43:35.852Z,1.40
2019-05-19T06:46:06.312Z,1.80
2019-05-19T06:49:04.868Z,1.60
2019-05-19T06:51:37.980Z,1.60
2019-05-19T06:54:11.440Z,1.50
2019-05-19T06:56:41.682Z,2.00
2019-05-19T06:59:12.095Z,1.30
2019-05-19T07:01:42.803Z,1.52
2019-05-19T07:04:12.963Z,1.70
2019-05-19T07:06:43.336Z,1.50
2019-05-19T07:09:13.530Z,1.50
2019-05-19T07:11:44.459Z,1.62
2019-05-19T07:14:14.592Z,1.60
2019-05-19T07:16:45.189Z,1.63
2019-05-19T07:19:15.315Z,1.47
2019-05-19T07:21:46.021Z,1.90
2019-05-19T07:24:16.205Z,1.60
2019-05-19T07:26:46.455Z,1.70
2019-05-19T07:29:16.829Z,1.70
2019-05-19T07:31:47.286Z,1.70
2019-05-19T07:34:21.186Z,1.70
2019-05-19T07:36:51.370Z,1.45
2019-05-19T07:39:21.531Z,1.57
2019-05-19T07:41:51.699Z,1.40
2019-05-19T07:44:21.907Z,1.70
2019-05-19T07:46:52.103Z,1.90
2019-05-19T07:49:22.282Z,1.60
2019-05-19T07:51:52.934Z,1.50
2019-05-19T07:54:23.242Z,1.70
2019-05-19T07:56:53.483Z,1.60
2019-05-19T07:59:23.701Z,1.70
2019-05-19T08:01:53.999Z,1.63
2019-05-19T08:04:24.252Z,1.67
2019-05-19T08:06:55.440Z,1.50
2019-05-19T08:09:25.575Z,1.67
2019-05-19T08:11:56.399Z,1.43
2019-05-19T08:14:26.723Z,1.60
2019-05-19T08:16:56.948Z,1.40
2019-05-19T08:19:27.201Z,1.37
2019-05-19T08:21:57.848Z,1.50
2019-05-19T08:24:28.641Z,1.40
2019-05-19T08:26:59.874Z,1.37
2019-05-19T08:29:30.117Z,1.70
2019-05-19T08:32:00.358Z,1.60
2019-05-19T08:34:30.661Z,1.50
2019-05-19T08:37:01.490Z,1.70
2019-05-19T08:39:31.844Z,1.20
2019-05-19T08:42:02.152Z,1.93
2019-05-19T08:44:33.564Z,1.30
2019-05-19T08:47:04.282Z,1.70
2019-05-19T08:49:34.436Z,1.93
2019-05-19T08:52:05.230Z,1.70
2019-05-19T08:54:35.471Z,1.50
2019-05-19T08:57:06.228Z,1.63
2019-05-19T08:59:36.752Z,1.40
2019-05-19T09:02:07.751Z,1.17
2019-05-19T09:04:38.248Z,1.40
2019-05-19T09:07:08.586Z,1.60
2019-05-19T09:09:38.998Z,1.60
2019-05-19T09:12:09.286Z,1.40
2019-05-19T09:14:39.417Z,1.50
2019-05-19T09:17:11.817Z,1.33
2019-05-19T09:19:42.038Z,1.60
2019-05-19T09:22:12.363Z,1.60
2019-05-19T09:24:43.339Z,1.37
2019-05-19T09:27:13.663Z,2.10
2019-05-19T09:29:43.891Z,1.90
2019-05-19T09:32:14.297Z,1.80
2019-05-19T09:34:44.901Z,1.60
2019-05-19T09:37:15.400Z,1.67
2019-05-19T09:39:45.927Z,1.97
2019-05-19T09:42:16.142Z,1.90
2019-05-19T09:44:46.557Z,2.00
2019-05-19T09:47:16.712Z,1.83
2019-05-19T09:49:47.063Z,1.40
2019-05-19T09:52:18.633Z,1.50
2019-05-19T09:54:49.253Z,1.90
2019-05-19T09:57:19.628Z,1.87
2019-05-19T09:59:50.404Z,1.47
2019-05-19T10:02:21.108Z,1.80
2019-05-19T10:04:52.745Z,1.70
2019-05-19T10:07:23.086Z,1.97
2019-05-19T10:10:03.580Z,1.47
2019-05-19T10:12:33.980Z,1.83
2019-05-19T10:15:04.733Z,1.60
2019-05-19T10:17:35.260Z,1.80
2019-05-19T10:20:07.733Z,1.63
2019-05-19T10:22:38.024Z,1.83
2019-05-19T10:25:21.572Z,1.60
2019-05-19T10:27:43.272Z,1.80
2019-05-19T10:30:14.394Z,2.10
2019-05-19T10:32:45.208Z,1.80
2019-05-19T10:35:15.805Z,1.70
2019-05-19T10:37:46.249Z,3.27
2019-05-19T10:40:16.792Z,2.30
2019-05-19T10:42:47.543Z,1.60
2019-05-19T10:45:18.311Z,1.80
2019-05-19T10:47:49.255Z,2.00
2019-05-19T10:50:19.673Z,4.07
2019-05-19T10:52:50.060Z,3.10
2019-05-19T10:55:20.370Z,2.40
2019-05-19T10:57:50.922Z,3.57
2019-05-19T11:00:21.587Z,2.17
2019-05-19T11:02:52.106Z,2.10
2019-05-19T11:05:22.515Z,2.07
2019-05-19T11:07:53.148Z,1.80
2019-05-19T11:10:23.622Z,2.10
2019-05-19T11:12:55.082Z,1.90
2019-05-19T11:15:25.514Z,2.00
2019-05-19T11:17:56.014Z,2.10
2019-05-19T11:20:26.426Z,1.70
2019-05-19T11:22:57.173Z,1.97
2019-05-19T11:25:34.015Z,2.10
2019-05-19T11:27:59.899Z,2.50
2019-05-19T11:30:31.005Z,1.90
2019-05-19T11:33:02.214Z,2.47
2019-05-19T11:35:32.569Z,2.50
2019-05-19T11:38:03.312Z,2.10
2019-05-19T11:40:33.533Z,1.90
2019-05-19T11:43:03.779Z,2.40
2019-05-19T11:45:35.268Z,2.20
2019-05-19T11:48:05.807Z,2.43
2019-05-19T11:50:36.377Z,2.13
2019-05-19T11:53:06.711Z,2.20
2019-05-19T11:55:37.421Z,2.00
2019-05-19T11:58:07.784Z,1.93
2019-05-19T12:00:38.319Z,1.50
2019-05-19T12:03:08.992Z,1.60
2019-05-19T12:05:39.290Z,2.00
2019-05-19T12:08:09.862Z,1.80
2019-05-19T12:10:40.646Z,1.90
2019-05-19T12:13:11.978Z,1.80
2019-05-19T12:15:42.468Z,1.90
2019-05-19T12:18:12.867Z,1.90
2019-05-19T12:20:43.215Z,1.97
2019-05-19T12:23:14.007Z,1.60
2019-05-19T12:25:45.374Z,1.70
2019-05-19T12:28:15.807Z,1.50
2019-05-19T12:30:47.752Z,2.23
2019-05-19T12:33:18.388Z,7.80
2019-05-19T12:35:48.637Z,2.10
2019-05-19T12:38:19.271Z,1.67
2019-05-19T12:40:49.847Z,2.40
2019-05-19T12:43:20.260Z,1.90
2019-05-19T12:45:50.942Z,2.17
2019-05-19T12:48:22.145Z,2.70
2019-05-19T12:50:52.762Z,3.00
2019-05-19T12:53:23.291Z,2.63
2019-05-19T12:55:53.787Z,2.30
2019-05-19T12:58:24.219Z,3.00
2019-05-19T13:00:55.781Z,3.40
2019-05-19T13:03:27.446Z,2.90
2019-05-19T13:05:57.883Z,2.93
2019-05-19T13:08:28.284Z,3.00
2019-05-19T13:10:59.171Z,3.53
2019-05-19T13:13:29.902Z,3.60
2019-05-19T13:16:00.440Z,3.43
2019-05-19T13:18:32.341Z,3.50
2019-05-19T13:21:02.595Z,3.87
2019-05-19T13:23:33.105Z,3.70
2019-05-19T13:26:03.453Z,3.40
2019-05-19T13:28:33.801Z,2.53
2019-05-19T13:31:04.228Z,2.87
2019-05-19T13:33:35.108Z,3.40
2019-05-19T13:36:06.551Z,3.53
2019-05-19T13:38:37.759Z,3.10
2019-05-19T13:41:08.350Z,3.37
2019-05-19T13:43:38.666Z,4.00
2019-05-19T13:46:09.835Z,4.20
2019-05-19T13:48:40.300Z,3.60
2019-05-19T13:51:12.154Z,3.43
2019-05-19T13:53:42.367Z,3.20
2019-05-19T13:56:12.551Z,2.80
2019-05-19T13:58:43.037Z,3.57
2019-05-19T14:01:27.601Z,3.40
2019-05-19T14:03:45.528Z,3.50
2019-05-19T14:06:17.278Z,3.00
2019-05-19T14:08:47.768Z,3.33
2019-05-19T14:11:18.769Z,3.13
2019-05-19T14:13:49.095Z,2.90
2019-05-19T14:16:20.770Z,3.73
2019-05-19T14:18:51.009Z,2.40
2019-05-19T14:21:21.439Z,2.57
2019-05-19T14:24:00.564Z,2.50
2019-05-19T14:26:31.470Z,2.43
2019-05-19T14:29:02.749Z,2.23
2019-05-19T14:31:33.183Z,2.60
2019-05-19T14:34:03.616Z,2.27
2019-05-19T14:36:35.036Z,2.67
2019-05-19T14:39:06.992Z,2.03
2019-05-19T14:41:41.574Z,2.47
2019-05-19T14:44:11.998Z,2.30
2019-05-19T14:46:42.777Z,2.77
2019-05-19T14:49:13.150Z,2.60
2019-05-19T14:51:43.505Z,2.00
2019-05-19T14:54:13.984Z,2.40
2019-05-19T14:56:45.609Z,1.97
2019-05-19T14:59:16.853Z,2.97
2019-05-19T15:01:47.198Z,2.30
2019-05-19T15:04:18.332Z,2.37
2019-05-19T15:06:49.143Z,2.17
2019-05-19T15:09:19.351Z,1.70
2019-05-19T15:11:49.903Z,1.80
2019-05-19T15:14:20.574Z,2.03
2019-05-19T15:16:50.940Z,2.20
2019-05-19T15:19:21.324Z,2.03
2019-05-19T15:21:52.758Z,1.60
2019-05-19T15:24:23.389Z,1.70
2019-05-19T15:26:54.533Z,1.90
2019-05-19T15:29:27.304Z,1.87
2019-05-19T15:31:57.795Z,1.97
2019-05-19T15:34:28.303Z,1.43
2019-05-19T15:36:58.755Z,1.50
2019-05-19T15:39:29.949Z,1.57
2019-05-19T15:42:00.424Z,1.20
2019-05-19T15:44:30.749Z,1.57
2019-05-19T15:47:02.122Z,1.53
2019-05-19T15:49:32.591Z,1.67
2019-05-19T15:52:05.366Z,2.23
2019-05-19T15:54:36.073Z,1.73
2019-05-19T15:57:07.155Z,2.03
2019-05-19T15:59:37.457Z,1.73
2019-05-19T16:02:07.939Z,1.60
2019-05-19T16:04:38.876Z,2.00
2019-05-19T16:07:09.220Z,2.23
2019-05-19T16:09:39.425Z,2.00
2019-05-19T16:12:09.812Z,2.00
2019-05-19T16:14:42.553Z,2.07
2019-05-19T16:17:13.187Z,2.00
2019-05-19T16:19:44.687Z,1.83
2019-05-19T16:22:29.495Z,1.73
2019-05-19T16:24:59.786Z,1.40
2019-05-19T16:27:30.337Z,1.37
2019-05-19T16:30:00.734Z,1.67
2019-05-19T16:32:31.635Z,1.73
2019-05-19T16:35:02.106Z,1.57
2019-05-19T16:37:32.377Z,1.70
2019-05-19T16:40:04.349Z,1.73
2019-05-19T16:42:34.867Z,1.50
2019-05-19T16:45:05.636Z,1.60
2019-05-19T16:47:54.995Z,1.77
2019-05-19T16:50:25.665Z,1.70
2019-05-19T16:52:56.535Z,2.20
2019-05-19T16:55:29.396Z,2.40
2019-05-19T16:57:59.938Z,2.57
2019-05-19T17:00:30.562Z,2.90
2019-05-19T17:03:01.456Z,3.23
2019-05-19T17:05:32.363Z,3.20
2019-05-19T17:08:03.727Z,2.50
2019-05-19T17:10:34.040Z,3.27
2019-05-19T17:13:04.559Z,3.27
2019-05-19T17:15:35.770Z,2.70
2019-05-19T17:18:08.268Z,2.87
2019-05-19T17:20:38.616Z,2.80
2019-05-19T17:23:09.981Z,3.07
2019-05-19T17:25:40.490Z,2.90
2019-05-19T17:28:11.080Z,3.37
2019-05-19T17:30:42.627Z,3.03
2019-05-19T17:33:13.119Z,2.73
2019-05-19T17:35:44.352Z,2.77
2019-05-19T17:38:15.852Z,2.17
2019-05-19T17:40:46.166Z,1.80
2019-05-19T17:43:17.631Z,1.80
2019-05-19T17:45:51.102Z,2.30
2019-05-19T17:48:26.636Z,2.47
2019-05-19T17:50:54.866Z,2.60
2019-05-19T17:53:25.295Z,1.57
2019-05-19T17:55:57.953Z,1.40
2019-05-19T17:58:29.335Z,1.50
2019-05-19T18:01:00.190Z,1.65
2019-05-19T18:03:31.215Z,2.22
2019-05-19T18:06:02.140Z,1.80
2019-05-19T18:08:33.074Z,2.10
2019-05-19T18:11:04.144Z,1.80
2019-05-19T18:14:08.131Z,1.97
2019-05-19T18:16:38.608Z,1.50
2019-05-19T18:19:08.899Z,1.73
2019-05-19T18:21:39.227Z,1.52
2019-05-19T18:24:09.676Z,1.60
2019-05-19T18:26:42.354Z,1.30
2019-05-19T18:29:12.833Z,1.70
2019-05-19T18:31:43.633Z,1.40
2019-05-19T18:34:14.310Z,1.20
2019-05-19T18:36:45.278Z,1.20
2019-05-19T18:39:15.729Z,1.50
2019-05-19T18:41:46.529Z,1.10
2019-05-19T18:44:17.082Z,1.30
2019-05-19T18:46:47.328Z,1.37
2019-05-19T18:49:18.080Z,1.30
2019-05-19T18:51:48.429Z,1.37
2019-05-19T18:54:19.213Z,1.45
2019-05-19T18:56:51.176Z,1.60
2019-05-19T18:59:21.770Z,1.75
2019-05-19T19:01:52.242Z,1.60
2019-05-19T19:04:22.985Z,1.40
2019-05-19T19:06:54.995Z,1.27
2019-05-19T19:09:27.670Z,1.60
2019-05-19T19:11:58.175Z,1.50
2019-05-19T19:14:28.706Z,1.22
2019-05-19T19:16:59.653Z,1.20
2019-05-19T19:19:29.929Z,1.10
2019-05-19T19:22:02.224Z,1.17
2019-05-19T19:24:33.826Z,1.15
2019-05-19T19:27:04.303Z,1.20
2019-05-19T19:29:34.714Z,1.20
2019-05-19T19:32:05.864Z,0.93
2019-05-19T19:34:36.496Z,1.30
2019-05-19T19:37:06.831Z,1.30
2019-05-19T19:39:37.177Z,1.40
2019-05-19T19:42:07.882Z,1.27
2019-05-19T19:44:39.231Z,1.20
2019-05-19T19:47:10.709Z,1.10
2019-05-19T19:49:41.176Z,1.12
2019-05-19T19:52:11.872Z,1.50
2019-05-19T19:54:42.261Z,1.20
2019-05-19T19:57:13.262Z,1.35
2019-05-19T19:59:43.847Z,1.50
2019-05-19T20:02:14.478Z,1.67
2019-05-19T20:04:45.428Z,1.20
2019-05-19T20:07:16.033Z,1.37
2019-05-19T20:09:46.514Z,1.20
2019-05-19T20:12:17.097Z,1.87
2019-05-19T20:14:48.729Z,1.40
2019-05-19T20:17:19.579Z,1.40
2019-05-19T20:19:50.148Z,1.82
2019-05-19T20:22:20.598Z,1.60
2019-05-19T20:24:52.585Z,1.50
2019-05-19T20:27:23.028Z,1.30
2019-05-19T20:29:53.386Z,1.50
2019-05-19T20:32:23.586Z,1.62
2019-05-19T20:34:54.359Z,1.50
2019-05-19T20:37:26.137Z,1.60
2019-05-19T20:39:57.278Z,1.55
2019-05-19T20:42:28.525Z,1.85
2019-05-19T20:44:59.016Z,1.80
2019-05-19T20:47:29.846Z,1.60
2019-05-19T20:50:02.685Z,1.45
2019-05-19T20:52:33.116Z,1.50
2019-05-19T20:55:03.569Z,1.50
2019-05-19T20:57:34.109Z,1.40
2019-05-19T21:00:04.795Z,1.20
2019-05-19T21:02:35.525Z,1.50
2019-05-19T21:05:09.298Z,1.55
2019-05-19T21:07:39.709Z,1.12
2019-05-19T21:10:10.317Z,1.37
2019-05-19T21:12:41.171Z,1.30
2019-05-19T21:15:11.689Z,1.10
2019-05-19T21:17:42.402Z,1.40
2019-05-19T21:20:13.158Z,1.30
2019-05-19T21:22:44.224Z,1.10
2019-05-19T21:25:14.806Z,1.20
2019-05-19T21:27:46.602Z,1.47
2019-05-19T21:30:17.312Z,1.25
2019-05-19T21:32:48.098Z,1.30
2019-05-19T21:35:18.503Z,1.20
2019-05-19T21:37:48.865Z,1.17
2019-05-19T21:40:19.445Z,1.20
2019-05-19T21:42:49.884Z,1.12
2019-05-19T21:45:20.321Z,1.20
2019-05-19T21:47:50.852Z,1.30
2019-05-19T21:50:21.799Z,1.22
2019-05-19T21:52:52.306Z,1.10
2019-05-19T21:55:23.187Z,1.30
2019-05-19T21:57:53.827Z,1.20
2019-05-19T22:00:27.702Z,1.00
2019-05-19T22:02:59.097Z,1.22
2019-05-19T22:05:29.835Z,1.20
2019-05-19T22:08:03.769Z,1.00
2019-05-19T22:10:34.098Z,1.20
2019-05-19T22:13:04.850Z,1.00
2019-05-19T22:15:36.760Z,1.15
2019-05-19T22:18:07.438Z,1.20
2019-05-19T22:20:37.906Z,1.00
2019-05-19T22:23:08.337Z,1.10
2019-05-19T22:25:38.854Z,1.00
2019-05-19T22:28:10.265Z,1.10
2019-05-19T22:30:40.818Z,1.10
2019-05-19T22:33:11.430Z,1.15
2019-05-19T22:35:42.394Z,1.30
2019-05-19T22:38:12.822Z,1.20
2019-05-19T22:40:43.212Z,1.20
2019-05-19T22:43:13.668Z,1.25
2019-05-19T22:45:44.225Z,1.30
2019-05-19T22:48:14.625Z,1.20
2019-05-19T22:50:45.004Z,1.10
2019-05-19T22:53:15.280Z,1.30
2019-05-19T22:55:45.851Z,1.25
2019-05-19T22:58:16.238Z,1.45
2019-05-19T23:00:47.046Z,1.10
2019-05-19T23:03:17.671Z,1.17
2019-05-19T23:05:48.091Z,1.30
2019-05-19T23:08:18.448Z,1.20
2019-05-19T23:10:49.016Z,1.17
2019-05-19T23:13:19.795Z,1.10
2019-05-19T23:15:50.575Z,1.20
2019-05-19T23:18:21.028Z,1.27
2019-05-19T23:20:51.406Z,1.32
2019-05-19T23:23:22.226Z,1.12
2019-05-19T23:25:53.695Z,1.30
2019-05-19T23:28:24.438Z,1.10
2019-05-19T23:30:54.868Z,1.50
2019-05-19T23:33:25.252Z,1.20
2019-05-19T23:35:55.659Z,1.22
2019-05-19T23:38:26.111Z,1.07
2019-05-19T23:40:56.916Z,1.20
2019-05-19T23:43:27.445Z,1.20
2019-05-19T23:45:58.123Z,1.00
2019-05-19T23:48:28.787Z,1.17
2019-05-19T23:50:59.188Z,1.02
2019-05-19T23:53:29.992Z,1.10
2019-05-19T23:56:00.870Z,1.25
2019-05-19T23:58:31.367Z,1.10
